Time;durP1;ratioP1;P1;durP2;ratioP2;P2;SDS_P1;SDS_P2;PMS_P1;PMS_P2;Temp;Humidity;BMP_temperature;BMP_pressure;BME280_temperature;BME280_humidity;BME280_pressure;Samples;Min_cycle;Max_cycle;Signal;HPM_P1;HPM_P2
2022/07/29 00:02:04;;;;;;;3.28;1.00;;;19.20;62.60;;;;;;5071983;28;20025;-71
2022/07/29 00:04:29;;;;;;;4.40;1.02;;;19.10;62.80;;;;;;5060740;28;20091;-71
2022/07/29 00:06:55;;;;;;;2.35;0.80;;;19.10;62.90;;;;;;5051595;28;20040;-71
2022/07/29 00:09:20;;;;;;;3.42;0.90;;;19.00;62.90;;;;;;5071661;28;20036;-70
2022/07/29 00:11:46;;;;;;;3.10;0.95;;;19.10;62.90;;;;;;5071855;28;20017;-70
2022/07/29 00:14:12;;;;;;;2.45;0.85;;;19.00;63.00;;;;;;5069654;28;20035;-69
2022/07/29 00:16:37;;;;;;;1.60;0.80;;;19.00;63.10;;;;;;5051687;28;20029;-71
2022/07/29 00:19:03;;;;;;;2.15;0.90;;;19.00;63.20;;;;;;5058012;28;20036;-70
2022/07/29 00:21:29;;;;;;;2.58;1.33;;;19.00;63.00;;;;;;5071912;28;20027;-70
2022/07/29 00:23:55;;;;;;;3.67;0.90;;;19.00;63.20;;;;;;5071475;28;20492;-70
2022/07/29 00:26:20;;;;;;;2.35;0.80;;;18.90;63.20;;;;;;5071872;28;20502;-70
2022/07/29 00:28:46;;;;;;;4.00;1.10;;;18.90;63.30;;;;;;5070160;28;20556;-71
2022/07/29 00:31:12;;;;;;;1.85;0.80;;;18.90;63.40;;;;;;5071732;28;20562;-70
2022/07/29 00:33:37;;;;;;;2.65;0.90;;;19.00;63.20;;;;;;5071827;28;20475;-69
2022/07/29 00:36:03;;;;;;;1.90;0.80;;;18.90;63.40;;;;;;5069981;28;20021;-70
2022/07/29 00:38:29;;;;;;;3.58;0.98;;;19.00;63.20;;;;;;5049547;28;20103;-70
2022/07/29 00:40:55;;;;;;;2.63;1.00;;;18.90;63.60;;;;;;5051462;28;20036;-71
2022/07/29 00:43:20;;;;;;;4.30;1.40;;;18.90;63.40;;;;;;5066860;28;20394;-69
2022/07/29 00:45:46;;;;;;;1.85;0.93;;;18.90;63.80;;;;;;5071341;28;20393;-71
2022/07/29 00:48:12;;;;;;;4.55;1.13;;;18.80;63.70;;;;;;5071237;28;20024;-71
2022/07/29 00:50:38;;;;;;;2.35;1.08;;;18.90;63.70;;;;;;5071351;28;20494;-71
2022/07/29 00:53:06;;;;;;;5.05;1.17;;;18.80;63.40;;;;;;5069479;28;20064;-71
2022/07/29 00:55:32;;;;;;;4.15;1.10;;;18.80;63.70;;;;;;5070009;28;20025;-69
2022/07/29 00:57:58;;;;;;;4.57;1.45;;;18.90;63.70;;;;;;5055573;28;20487;-70
2022/07/29 01:00:27;;;;;;;3.58;1.13;;;18.90;63.90;;;;;;5051043;28;20104;-70
2022/07/29 01:02:53;;;;;;;3.30;1.17;;;18.80;64.50;;;;;;5049120;28;20029;-71
2022/07/29 01:05:21;;;;;;;3.38;1.02;;;18.80;63.90;;;;;;5051562;28;20066;-71
2022/07/29 01:07:52;;;;;;;2.47;1.10;;;18.80;64.00;;;;;;5060442;28;20089;-71
2022/07/29 01:10:21;;;;;;;7.13;1.45;;;18.80;63.80;;;;;;5071325;28;20052;-70
2022/07/29 01:12:49;;;;;;;4.10;1.23;;;18.80;64.00;;;;;;5068319;28;20024;-70
2022/07/29 01:15:15;;;;;;;2.63;1.10;;;18.80;64.20;;;;;;5070324;28;20032;-69
2022/07/29 01:17:49;;;;;;;5.28;1.50;;;18.70;64.60;;;;;;5070741;28;20020;-69
2022/07/29 01:20:37;;;;;;;2.72;1.23;;;18.80;64.10;;;;;;5062497;28;20044;-70
2022/07/29 01:23:29;;;;;;;3.80;1.25;;;18.70;63.90;;;;;;5052607;28;20025;-72
2022/07/29 01:26:12;;;;;;;2.53;0.93;;;18.70;64.20;;;;;;5050457;28;20029;-71
2022/07/29 01:28:46;;;;;;;4.15;1.50;;;18.70;64.60;;;;;;5050806;28;20400;-71
2022/07/29 01:31:18;;;;;;;3.83;1.25;;;18.70;65.00;;;;;;5056335;28;20025;-71
2022/07/29 01:33:51;;;;;;;1.73;0.90;;;18.80;64.50;;;;;;5058052;28;20017;-70
2022/07/29 01:36:39;;;;;;;5.85;1.80;;;18.80;63.80;;;;;;5058815;28;20027;-71
2022/07/29 01:39:25;;;;;;;4.15;1.92;;;18.90;64.00;;;;;;5058245;28;20041;-70
2022/07/29 01:41:58;;;;;;;5.18;1.83;;;18.80;64.50;;;;;;5057760;28;20071;-70
2022/07/29 01:44:32;;;;;;;3.47;1.30;;;18.80;64.40;;;;;;5058033;28;20025;-71
2022/07/29 01:47:05;;;;;;;4.75;1.92;;;18.80;64.00;;;;;;5058317;28;20483;-70
2022/07/29 01:49:36;;;;;;;4.03;1.30;;;18.80;64.40;;;;;;5057994;28;20067;-70
2022/07/29 01:52:10;;;;;;;2.78;1.20;;;18.70;64.60;;;;;;5065778;28;20036;-70
2022/07/29 01:54:42;;;;;;;4.65;1.52;;;18.60;64.80;;;;;;5069355;28;20021;-70
2022/07/29 01:57:11;;;;;;;1.95;0.90;;;18.60;65.10;;;;;;5069112;28;20104;-70
2022/07/29 01:59:38;;;;;;;7.72;1.55;;;18.70;64.30;;;;;;5067963;28;20703;-70
2022/07/29 02:02:05;;;;;;;4.22;1.60;;;18.80;64.90;;;;;;5069943;28;20032;-70
2022/07/29 02:04:33;;;;;;;6.00;1.83;;;18.80;65.00;;;;;;5069531;28;20033;-71
2022/07/29 02:07:03;;;;;;;4.55;1.45;;;18.80;65.00;;;;;;5063446;28;20032;-71
2022/07/29 02:09:30;;;;;;;;;;;18.80;65.30;;;;;;5069208;28;20139;-71
2022/07/29 02:11:57;;;;;;;5.38;1.45;;;18.90;65.70;;;;;;5069479;28;19912;-71
2022/07/29 02:14:24;;;;;;;4.20;1.30;;;18.90;65.40;;;;;;5058481;28;20033;-71
2022/07/29 02:16:54;;;;;;;4.90;1.60;;;18.90;65.20;;;;;;5049825;28;20113;-70
2022/07/29 02:19:22;;;;;;;3.50;1.30;;;18.90;65.10;;;;;;5049878;28;20048;-70
2022/07/29 02:21:49;;;;;;;5.72;1.70;;;18.90;65.30;;;;;;5054785;28;20029;-71
2022/07/29 02:24:18;;;;;;;6.65;1.70;;;18.90;65.30;;;;;;5049449;28;20549;-71
2022/07/29 02:26:44;;;;;;;3.17;1.50;;;18.90;65.50;;;;;;5047764;28;20028;-71
2022/07/29 02:29:12;;;;;;;4.38;1.85;;;19.00;65.60;;;;;;5058032;28;20044;-70
2022/07/29 02:31:43;;;;;;;4.00;1.40;;;19.00;67.00;;;;;;5068068;28;20021;-70
2022/07/29 02:34:11;;;;;;;5.05;1.73;;;18.90;66.80;;;;;;5069502;28;20031;-71
2022/07/29 02:36:37;;;;;;;5.50;1.27;;;19.00;67.80;;;;;;5063863;28;20028;-71
2022/07/29 02:39:03;;;;;;;3.45;1.33;;;19.00;67.70;;;;;;5049450;28;20033;-70
2022/07/29 02:41:37;;;;;;;2.65;1.17;;;18.90;67.70;;;;;;5048755;28;20128;-71
2022/07/29 02:44:12;;;;;;;3.15;1.50;;;19.00;67.40;;;;;;5049333;28;20032;-71
2022/07/29 02:46:45;;;;;;;4.93;1.77;;;18.90;67.10;;;;;;5049099;28;20079;-71
2022/07/29 02:49:16;;;;;;;4.45;1.50;;;18.90;67.90;;;;;;5049101;28;20031;-71
2022/07/29 02:51:50;;;;;;;3.28;1.35;;;18.80;68.70;;;;;;5055936;28;20024;-70
2022/07/29 02:54:35;;;;;;;4.60;1.70;;;18.80;68.90;;;;;;5067271;28;20052;-69
2022/07/29 02:57:06;;;;;;;2.72;1.27;;;18.80;70.00;;;;;;5069203;28;20028;-71
2022/07/29 02:59:34;;;;;;;4.93;1.52;;;18.80;69.40;;;;;;5068625;28;20041;-71
2022/07/29 03:02:02;;;;;;;2.90;1.30;;;18.80;69.30;;;;;;5056138;28;20108;-71
2022/07/29 03:04:30;;;;;;;2.67;1.50;;;18.80;69.30;;;;;;5049315;28;20092;-72
2022/07/29 03:06:59;;;;;;;4.70;1.88;;;18.80;68.00;;;;;;5048880;28;20111;-73
2022/07/29 03:09:26;;;;;;;4.82;1.58;;;18.70;69.30;;;;;;5062674;28;20044;-72
2022/07/29 03:11:54;;;;;;;2.30;0.90;;;18.70;69.70;;;;;;5069028;28;20020;-71
2022/07/29 03:14:20;;;;;;;4.55;1.10;;;18.60;67.30;;;;;;5069131;28;20074;-72
2022/07/29 03:16:46;;;;;;;4.07;1.10;;;18.60;66.60;;;;;;5060922;28;20025;-70
2022/07/29 03:19:13;;;;;;;4.25;1.48;;;18.50;66.10;;;;;;5052125;28;20021;-71
2022/07/29 03:21:38;;;;;;;4.15;1.38;;;18.50;67.20;;;;;;5061900;28;20029;-71
2022/07/29 03:24:04;;;;;;;2.95;1.05;;;18.30;66.90;;;;;;5071901;28;20390;-72
2022/07/29 03:26:30;;;;;;;4.43;1.67;;;18.20;66.70;;;;;;5072995;28;20066;-72
2022/07/29 03:28:55;;;;;;;2.58;1.02;;;18.10;68.10;;;;;;5071989;28;20122;-70
2022/07/29 03:31:21;;;;;;;4.20;1.20;;;18.00;68.10;;;;;;5072032;28;20432;-70
2022/07/29 03:33:47;;;;;;;4.55;1.23;;;17.90;68.00;;;;;;5072708;28;20025;-71
2022/07/29 03:36:13;;;;;;;3.28;1.40;;;17.80;67.90;;;;;;5069554;28;20040;-71
2022/07/29 03:38:41;;;;;;;3.78;1.70;;;17.70;70.30;;;;;;5052429;28;20039;-71
2022/07/29 03:41:10;;;;;;;3.33;1.70;;;17.70;70.30;;;;;;5058441;28;20037;-70
2022/07/29 03:43:38;;;;;;;6.18;2.10;;;17.60;70.80;;;;;;5061944;28;20028;-71
2022/07/29 03:46:06;;;;;;;6.85;2.88;;;17.60;71.60;;;;;;5052154;28;20029;-72
2022/07/29 03:48:35;;;;;;;5.57;2.47;;;17.50;71.90;;;;;;5070433;28;20032;-71
2022/07/29 03:51:01;;;;;;;6.25;2.58;;;17.40;74.20;;;;;;5072633;28;20024;-71
2022/07/29 03:53:26;;;;;;;5.63;2.15;;;17.40;72.70;;;;;;5072098;28;20047;-72
2022/07/29 03:55:58;;;;;;;5.80;2.40;;;17.30;72.40;;;;;;5071939;28;20479;-71
2022/07/29 03:58:27;;;;;;;5.85;2.60;;;17.30;74.20;;;;;;5070859;28;20071;-70
2022/07/29 04:00:54;;;;;;;6.05;1.80;;;17.20;75.40;;;;;;5071708;28;20020;-71
2022/07/29 04:03:21;;;;;;;3.05;1.42;;;17.20;73.50;;;;;;5052666;28;20025;-71
2022/07/29 04:06:07;;;;;;;5.97;2.30;;;17.10;72.00;;;;;;5051793;28;20025;-72
2022/07/29 04:08:34;;;;;;;6.25;2.28;;;17.10;73.80;;;;;;5051785;28;20029;-70
2022/07/29 04:11:00;;;;;;;6.30;3.03;;;17.00;73.80;;;;;;5056577;28;20033;-70
2022/07/29 04:13:26;;;;;;;5.32;2.13;;;16.90;75.70;;;;;;5051857;28;20025;-71
2022/07/29 04:15:53;;;;;;;3.58;1.73;;;17.00;73.30;;;;;;5051460;28;20143;-71
2022/07/29 04:18:21;;;;;;;6.88;1.90;;;16.90;72.80;;;;;;5051431;28;20555;-70
2022/07/29 04:20:46;;;;;;;6.93;2.50;;;16.80;71.30;;;;;;5051585;28;20086;-72
2022/07/29 04:23:12;;;;;;;4.22;2.08;;;16.80;74.90;;;;;;5052098;28;20033;-70
2022/07/29 04:25:41;;;;;;;5.88;2.53;;;16.70;74.00;;;;;;5051446;28;20032;-71
2022/07/29 04:28:08;;;;;;;8.02;3.97;;;16.70;75.20;;;;;;5051341;28;20495;-71
2022/07/29 04:30:35;;;;;;;6.60;2.92;;;16.70;77.10;;;;;;5050051;28;20025;-70
2022/07/29 04:33:05;;;;;;;7.00;3.38;;;16.70;78.40;;;;;;5051399;28;20071;-72
2022/07/29 04:35:33;;;;;;;2.72;1.30;;;16.70;78.00;;;;;;5051548;28;20108;-72
2022/07/29 04:37:59;;;;;;;4.15;1.67;;;16.70;75.80;;;;;;5068773;28;20360;-71
2022/07/29 04:40:24;;;;;;;4.70;2.13;;;16.80;73.70;;;;;;5061592;28;20032;-70
2022/07/29 04:42:50;;;;;;;6.28;2.70;;;16.70;75.60;;;;;;5073045;28;20032;-70
2022/07/29 04:45:15;;;;;;;6.38;2.25;;;16.70;75.80;;;;;;5076682;28;20021;-72
2022/07/29 04:47:41;;;;;;;6.22;3.17;;;16.60;75.60;;;;;;5076715;28;20030;-72
2022/07/29 04:50:08;;;;;;;5.97;3.40;;;16.50;77.40;;;;;;5071905;28;20157;-72
2022/07/29 04:52:35;;;;;;;7.10;3.03;;;16.50;78.20;;;;;;5071356;28;20098;-71
2022/07/29 04:55:01;;;;;;;5.63;2.78;;;16.50;78.20;;;;;;5070161;28;20032;-71
2022/07/29 04:57:27;;;;;;;7.47;3.38;;;16.50;79.00;;;;;;5066706;28;20154;-72
2022/07/29 04:59:52;;;;;;;8.00;3.50;;;16.60;77.20;;;;;;5059170;28;20147;-71
2022/07/29 05:02:18;;;;;;;6.28;2.50;;;16.60;78.50;;;;;;5060556;28;20032;-72
2022/07/29 05:04:44;;;;;;;5.53;2.45;;;16.70;77.50;;;;;;5059657;28;20024;-72
2022/07/29 05:07:09;;;;;;;7.68;3.58;;;16.60;77.10;;;;;;5060442;28;20029;-72
2022/07/29 05:09:35;;;;;;;5.75;2.10;;;16.60;77.00;;;;;;5061050;28;20044;-72
2022/07/29 05:12:00;;;;;;;6.38;2.80;;;16.60;75.90;;;;;;5059942;28;20028;-71
2022/07/29 05:14:26;;;;;;;5.43;2.42;;;16.60;77.10;;;;;;5059910;28;20020;-72
2022/07/29 05:16:56;;;;;;;4.28;2.35;;;16.60;76.50;;;;;;5060574;28;20051;-71
2022/07/29 05:19:22;;;;;;;10.63;3.20;;;16.70;77.60;;;;;;5058654;28;20037;-71
2022/07/29 05:21:48;;;;;;;5.40;2.60;;;16.70;78.10;;;;;;5057212;28;20025;-71
2022/07/29 05:24:14;;;;;;;5.90;2.20;;;16.70;75.90;;;;;;5059453;28;20108;-71
2022/07/29 05:26:40;;;;;;;7.07;3.22;;;16.70;76.00;;;;;;5059303;28;20046;-70
2022/07/29 05:29:05;;;;;;;5.38;2.40;;;16.70;76.80;;;;;;5059702;28;20082;-70
2022/07/29 05:31:31;;;;;;;4.47;2.55;;;16.60;77.10;;;;;;5060282;28;20021;-71
2022/07/29 05:33:57;;;;;;;8.20;3.03;;;16.60;76.30;;;;;;5058775;28;20111;-72
2022/07/29 05:36:22;;;;;;;4.85;2.10;;;16.60;76.50;;;;;;5059516;28;20623;-70
2022/07/29 05:38:48;;;;;;;6.15;2.63;;;16.60;77.20;;;;;;5058956;28;20147;-69
2022/07/29 05:41:14;;;;;;;6.07;2.58;;;16.60;77.90;;;;;;5055035;28;20411;-72
2022/07/29 05:43:39;;;;;;;7.65;2.45;;;16.70;77.80;;;;;;5060009;28;20028;-70
2022/07/29 05:46:05;;;;;;;5.57;3.00;;;16.70;77.40;;;;;;5059285;28;20036;-71
2022/07/29 05:48:30;;;;;;;5.18;2.53;;;16.70;76.80;;;;;;5059616;28;20446;-71
2022/07/29 05:50:56;;;;;;;3.42;2.20;;;16.70;76.90;;;;;;5057398;28;20103;-70
2022/07/29 05:53:22;;;;;;;7.80;3.15;;;16.70;75.40;;;;;;5059897;28;20024;-71
2022/07/29 05:55:48;;;;;;;5.22;2.00;;;16.70;75.80;;;;;;5058556;28;20095;-72
2022/07/29 05:58:14;;;;;;;5.00;2.05;;;16.80;75.80;;;;;;5058707;28;20029;-72
2022/07/29 06:00:40;;;;;;;4.38;2.53;;;16.80;76.00;;;;;;5058154;28;20458;-71
2022/07/29 06:03:06;;;;;;;5.88;2.78;;;16.90;76.70;;;;;;5064638;28;20035;-71
2022/07/29 06:05:31;;;;;;;4.57;1.63;;;16.90;73.20;;;;;;5069582;28;20052;-71
2022/07/29 06:07:57;;;;;;;3.80;1.38;;;16.90;74.60;;;;;;5069296;28;20026;-69
2022/07/29 06:10:22;;;;;;;5.97;1.70;;;17.00;71.40;;;;;;5067245;28;20024;-69
2022/07/29 06:12:50;;;;;;;6.85;1.73;;;17.30;73.00;;;;;;5069253;28;20028;-68
2022/07/29 06:15:16;;;;;;;8.57;1.80;;;17.80;73.90;;;;;;5068523;28;20027;-69
2022/07/29 06:17:41;;;;;;;11.10;1.77;;;18.20;73.60;;;;;;5051165;28;20028;-69
2022/07/29 06:20:07;;;;;;;3.25;1.73;;;18.60;72.80;;;;;;5049079;28;20040;-69
2022/07/29 06:22:33;;;;;;;4.60;1.42;;;18.90;71.90;;;;;;5057276;28;20033;-69
2022/07/29 06:25:00;;;;;;;5.43;1.80;;;19.20;71.50;;;;;;5053847;28;20032;-71
2022/07/29 06:27:26;;;;;;;2.38;1.10;;;19.40;70.80;;;;;;5056398;28;20431;-71
2022/07/29 06:29:51;;;;;;;3.78;1.20;;;19.50;70.00;;;;;;5056918;28;20021;-70
2022/07/29 06:32:17;;;;;;;3.55;1.38;;;19.60;69.80;;;;;;5057743;28;20017;-70
2022/07/29 06:34:43;;;;;;;2.78;1.30;;;19.70;69.50;;;;;;5058090;28;20017;-69
2022/07/29 06:37:11;;;;;;;4.35;1.38;;;19.90;68.90;;;;;;5061718;28;20475;-70
2022/07/29 06:39:37;;;;;;;6.88;1.63;;;20.20;68.40;;;;;;5056602;28;20037;-70
2022/07/29 06:42:06;;;;;;;3.63;1.17;;;20.40;67.60;;;;;;5058014;28;20414;-70
2022/07/29 06:44:33;;;;;;;3.15;1.50;;;20.60;66.90;;;;;;5058610;28;20032;-69
2022/07/29 06:47:00;;;;;;;7.72;1.67;;;20.80;66.30;;;;;;5058702;28;20056;-69
2022/07/29 06:49:27;;;;;;;3.63;1.10;;;20.90;65.80;;;;;;5060467;28;20417;-69
2022/07/29 06:51:53;;;;;;;3.80;1.40;;;21.10;65.20;;;;;;5057063;28;20029;-69
2022/07/29 06:54:19;;;;;;;4.88;1.38;;;21.10;64.80;;;;;;5054716;28;20035;-70
2022/07/29 06:56:44;;;;;;;5.53;1.52;;;21.20;64.80;;;;;;5048639;28;20418;-70
2022/07/29 06:59:12;;;;;;;3.95;1.48;;;21.30;64.50;;;;;;5060348;28;20334;-70
2022/07/29 07:01:38;;;;;;;4.55;1.58;;;21.40;64.20;;;;;;5057602;28;20582;-70
2022/07/29 07:04:08;;;;;;;2.97;1.25;;;21.40;63.80;;;;;;5057164;28;20351;-71
2022/07/29 07:06:35;;;;;;;3.58;1.55;;;21.50;63.60;;;;;;5056600;28;20502;-70
2022/07/29 07:09:01;;;;;;;3.80;1.25;;;21.60;63.20;;;;;;5062594;28;20029;-70
2022/07/29 07:11:27;;;;;;;3.25;1.30;;;21.70;62.90;;;;;;5057748;28;20109;-72
2022/07/29 07:13:52;;;;;;;3.50;1.20;;;21.70;62.70;;;;;;5056513;28;20068;-71
2022/07/29 07:16:18;;;;;;;4.10;1.15;;;21.70;62.70;;;;;;5062125;28;20021;-71
2022/07/29 07:18:44;;;;;;;4.45;1.30;;;21.70;62.80;;;;;;5058303;28;20032;-70
2022/07/29 07:21:10;;;;;;;4.50;1.42;;;21.60;62.60;;;;;;5056653;28;20033;-69
2022/07/29 07:23:36;;;;;;;2.30;0.95;;;21.60;62.50;;;;;;5052252;28;20767;-69
2022/07/29 07:26:02;;;;;;;4.03;1.10;;;21.50;62.60;;;;;;5057331;28;20490;-70
2022/07/29 07:28:28;;;;;;;4.03;1.13;;;21.50;62.90;;;;;;5058128;28;20080;-70
2022/07/29 07:30:54;;;;;;;2.85;1.00;;;21.40;63.10;;;;;;5055936;28;20762;-70
2022/07/29 07:33:20;;;;;;;2.35;0.98;;;21.40;63.00;;;;;;5054227;28;20025;-70
2022/07/29 07:35:45;;;;;;;4.55;1.30;;;21.50;63.60;;;;;;5055300;28;20048;-69
2022/07/29 07:38:11;;;;;;;6.40;1.23;;;21.50;62.70;;;;;;5049212;28;20562;-70
2022/07/29 07:40:37;;;;;;;3.15;1.27;;;21.50;62.60;;;;;;5046592;28;20053;-70
2022/07/29 07:43:02;;;;;;;3.58;1.13;;;21.50;62.60;;;;;;5046543;28;20021;-70
2022/07/29 07:45:28;;;;;;;4.97;1.45;;;21.60;62.50;;;;;;5048530;28;20499;-69
2022/07/29 07:47:54;;;;;;;2.40;1.10;;;21.60;62.30;;;;;;5066857;28;20055;-70
2022/07/29 07:50:19;;;;;;;4.68;1.02;;;21.60;62.30;;;;;;5066251;28;20028;-70
2022/07/29 07:52:50;;;;;;;4.13;1.00;;;21.70;62.20;;;;;;5058239;28;20016;-70
2022/07/29 07:55:16;;;;;;;4.20;1.25;;;21.70;62.00;;;;;;5055235;28;20029;-70
2022/07/29 07:57:41;;;;;;;4.70;1.33;;;21.80;62.00;;;;;;5054854;28;20025;-70
2022/07/29 08:00:12;;;;;;;2.95;1.10;;;21.70;62.10;;;;;;5055401;28;20059;-72
2022/07/29 08:02:37;;;;;;;;;;;21.70;62.20;;;;;;5056895;28;20039;-70
2022/07/29 08:05:03;;;;;;;2.40;1.17;;;21.80;62.20;;;;;;5056119;28;19916;-70
2022/07/29 08:07:29;;;;;;;3.03;1.08;;;21.80;61.80;;;;;;5060358;28;20065;-69
2022/07/29 08:09:54;;;;;;;3.20;1.38;;;21.90;61.70;;;;;;5059837;28;20402;-70
2022/07/29 08:12:20;;;;;;;3.88;1.48;;;22.00;61.50;;;;;;5058810;28;20032;-70
2022/07/29 08:14:46;;;;;;;3.95;1.90;;;22.00;61.50;;;;;;5059523;28;20550;-70
2022/07/29 08:17:11;;;;;;;3.20;1.10;;;22.00;61.40;;;;;;5059693;28;20025;-70
2022/07/29 08:19:38;;;;;;;2.35;1.08;;;22.10;61.20;;;;;;5059455;28;20502;-69
2022/07/29 08:22:04;;;;;;;2.53;1.02;;;22.20;61.20;;;;;;5059160;28;20628;-70
2022/07/29 08:27:33;;;;;;;2.50;0.98;;;22.20;61.00;;;;;;5056789;28;20121;-70
2022/07/29 08:29:59;;;;;;;4.63;1.90;;;22.30;60.90;;;;;;5056245;28;20500;-70
2022/07/29 08:32:25;;;;;;;2.75;1.27;;;22.20;61.00;;;;;;5053326;28;20460;-69
2022/07/29 08:34:51;;;;;;;4.03;1.30;;;22.30;61.00;;;;;;5058666;28;20032;-69
2022/07/29 08:37:16;;;;;;;1.83;0.70;;;22.30;61.00;;;;;;5056374;28;20045;-71
2022/07/29 08:39:42;;;;;;;2.50;1.30;;;22.30;61.10;;;;;;5057495;28;20029;-69
2022/07/29 08:42:09;;;;;;;2.65;1.40;;;22.20;61.10;;;;;;5069930;28;20135;-69
2022/07/29 08:44:38;;;;;;;4.10;1.33;;;22.10;61.30;;;;;;5062851;28;20032;-69
2022/07/29 08:47:04;;;;;;;2.97;1.00;;;22.10;61.50;;;;;;5051837;28;20087;-69
2022/07/29 08:49:30;;;;;;;5.18;1.20;;;22.10;61.60;;;;;;5057229;28;20025;-70
2022/07/29 08:51:58;;;;;;;3.42;1.10;;;22.00;61.50;;;;;;5059818;28;20383;-71
2022/07/29 08:54:24;;;;;;;3.47;1.08;;;22.00;61.60;;;;;;5057327;28;20025;-70
2022/07/29 08:56:51;;;;;;;7.78;1.52;;;22.00;61.70;;;;;;5049504;28;20029;-70
2022/07/29 08:59:23;;;;;;;2.05;0.93;;;22.00;61.80;;;;;;5049530;28;20183;-70
2022/07/29 09:01:53;;;;;;;2.67;1.10;;;22.00;61.60;;;;;;5060457;28;20120;-70
2022/07/29 09:04:19;;;;;;;;;;;22.10;61.50;;;;;;5050690;28;20026;-68
2022/07/29 09:06:47;;;;;;;3.90;1.30;;;22.20;61.40;;;;;;5060071;28;19911;-70
2022/07/29 09:09:13;;;;;;;4.45;1.08;;;22.20;61.30;;;;;;5056029;28;20035;-70
2022/07/29 09:11:41;;;;;;;2.20;1.00;;;22.30;61.40;;;;;;5058820;28;20033;-70
2022/07/29 09:14:08;;;;;;;2.80;1.20;;;22.40;61.30;;;;;;5051371;28;20031;-69
2022/07/29 09:16:49;;;;;;;3.20;1.00;;;22.50;61.10;;;;;;5055852;28;20024;-70
2022/07/29 09:19:30;;;;;;;2.38;1.00;;;22.50;61.00;;;;;;5063291;28;20041;-69
2022/07/29 09:21:57;;;;;;;4.32;1.73;;;22.50;60.90;;;;;;5051164;28;20028;-69
2022/07/29 09:24:24;;;;;;;3.53;1.15;;;22.60;61.00;;;;;;5065030;28;20063;-69
2022/07/29 09:26:50;;;;;;;2.55;1.00;;;22.50;61.00;;;;;;5050118;28;20028;-70
2022/07/29 09:29:20;;;;;;;3.05;1.50;;;22.60;60.90;;;;;;5053791;28;20020;-69
2022/07/29 09:31:48;;;;;;;3.42;1.20;;;22.60;60.80;;;;;;5070421;28;20494;-69
2022/07/29 09:34:16;;;;;;;3.13;1.15;;;22.60;60.70;;;;;;5052594;28;20032;-69
2022/07/29 09:36:47;;;;;;;3.33;1.42;;;22.60;60.80;;;;;;5056360;28;20096;-68
2022/07/29 09:39:26;;;;;;;3.67;1.17;;;22.70;60.70;;;;;;5066537;28;20041;-69
2022/07/29 09:41:54;;;;;;;4.35;1.23;;;22.70;60.60;;;;;;5050344;28;20049;-69
2022/07/29 09:44:23;;;;;;;3.22;1.00;;;22.70;60.60;;;;;;5049875;28;20538;-69
2022/07/29 09:46:57;;;;;;;4.93;1.30;;;22.80;60.60;;;;;;5052250;28;20053;-69
2022/07/29 09:49:23;;;;;;;3.20;1.48;;;22.80;60.60;;;;;;5050343;28;20025;-71
2022/07/29 09:52:01;;;;;;;4.55;1.30;;;22.70;60.60;;;;;;5050121;28;20028;-69
2022/07/29 09:54:28;;;;;;;2.50;0.90;;;22.70;60.80;;;;;;5051317;28;20059;-70
2022/07/29 09:56:55;;;;;;;2.80;1.17;;;22.70;60.60;;;;;;5051796;28;20049;-71
2022/07/29 09:59:26;;;;;;;2.13;1.08;;;22.80;60.60;;;;;;5059314;28;20033;-72
2022/07/29 10:01:51;;;;;;;;;;;22.90;60.50;;;;;;5053923;28;20028;-70
2022/07/29 10:04:19;;;;;;;3.55;1.10;;;23.10;60.40;;;;;;5052931;28;19916;-68
2022/07/29 10:07:01;;;;;;;3.45;1.33;;;23.20;60.00;;;;;;5056871;28;20021;-71
2022/07/29 10:09:27;;;;;;;1.95;0.82;;;23.40;59.10;;;;;;5058108;28;20029;-69
2022/07/29 10:12:14;;;;;;;4.43;1.25;;;23.50;59.00;;;;;;5058467;28;20139;-71
2022/07/29 10:14:41;;;;;;;6.15;1.48;;;23.60;59.20;;;;;;5058347;28;20037;-68
2022/07/29 10:17:09;;;;;;;4.07;1.40;;;23.70;58.80;;;;;;5055840;28;20653;-70
2022/07/29 10:19:36;;;;;;;2.67;1.10;;;23.80;59.00;;;;;;5053646;28;20525;-72
2022/07/29 10:22:05;;;;;;;3.90;1.55;;;23.90;58.80;;;;;;5058234;28;20027;-72
2022/07/29 10:24:31;;;;;;;3.00;0.93;;;24.00;58.60;;;;;;5059051;28;20059;-72
2022/07/29 10:27:00;;;;;;;4.10;1.60;;;24.10;57.90;;;;;;5056522;28;20028;-71
2022/07/29 10:29:26;;;;;;;3.40;1.40;;;24.30;57.80;;;;;;5056977;28;20114;-72
2022/07/29 10:32:10;;;;;;;6.72;1.48;;;24.60;57.20;;;;;;5054874;28;20079;-72
2022/07/29 10:35:06;;;;;;;3.17;1.05;;;24.80;56.90;;;;;;5060047;28;20048;-73
2022/07/29 10:38:08;;;;;;;4.13;1.13;;;25.10;56.50;;;;;;5061249;28;20029;-72
2022/07/29 10:43:29;;;;;;;2.85;0.80;;;25.30;55.80;;;;;;5057026;28;20043;-71
2022/07/29 10:46:00;;;;;;;2.95;1.20;;;25.30;55.10;;;;;;5054351;28;20024;-70
2022/07/29 10:48:26;;;;;;;4.93;1.08;;;25.30;55.70;;;;;;5051868;28;20095;-71
2022/07/29 10:51:00;;;;;;;2.78;1.17;;;25.40;55.80;;;;;;5050656;28;20040;-70
2022/07/29 10:53:52;;;;;;;4.07;1.10;;;25.60;55.70;;;;;;5052483;28;20025;-70
2022/07/29 10:56:32;;;;;;;3.25;1.05;;;26.00;55.00;;;;;;5052354;28;20052;-70
2022/07/29 10:59:20;;;;;;;2.83;1.15;;;26.10;53.40;;;;;;5052399;28;20044;-70
2022/07/29 11:01:50;;;;;;;3.00;1.30;;;26.20;53.70;;;;;;5051148;28;20024;-70
2022/07/29 11:04:45;;;;;;;4.57;1.02;;;26.30;53.20;;;;;;5051994;28;20028;-71
2022/07/29 11:07:12;;;;;;;3.45;1.38;;;26.20;53.60;;;;;;5051724;28;20104;-69
2022/07/29 11:09:38;;;;;;;2.42;1.00;;;26.10;52.70;;;;;;5051059;28;20025;-67
2022/07/29 11:12:27;;;;;;;6.15;1.20;;;26.00;54.50;;;;;;5053118;28;20021;-70
2022/07/29 11:14:58;;;;;;;3.97;1.30;;;25.90;52.50;;;;;;5056988;28;20048;-68
2022/07/29 11:17:24;;;;;;;3.38;1.10;;;25.70;53.70;;;;;;5050865;28;20060;-70
2022/07/29 11:19:51;;;;;;;3.78;1.33;;;25.60;54.50;;;;;;5049023;28;20044;-69
2022/07/29 11:22:34;;;;;;;3.30;1.00;;;25.70;53.70;;;;;;5051219;28;20040;-70
2022/07/29 11:25:18;;;;;;;2.97;1.30;;;25.80;54.80;;;;;;5051011;28;20035;-69
2022/07/29 11:27:44;;;;;;;4.95;1.70;;;26.10;54.90;;;;;;5052642;28;20391;-69
2022/07/29 11:30:11;;;;;;;5.53;1.77;;;26.30;53.80;;;;;;5058403;28;20563;-70
2022/07/29 11:32:43;;;;;;;6.80;2.03;;;26.50;53.80;;;;;;5049728;28;20364;-69
2022/07/29 11:35:20;;;;;;;4.07;1.48;;;26.70;53.40;;;;;;5052731;28;20021;-68
2022/07/29 11:38:07;;;;;;;2.85;1.25;;;26.80;53.10;;;;;;5051150;28;20658;-69
2022/07/29 11:40:32;;;;;;;4.57;1.42;;;26.90;52.70;;;;;;5053402;28;20084;-68
2022/07/29 11:42:58;;;;;;;6.00;1.35;;;27.00;52.90;;;;;;5053458;28;20487;-69
2022/07/29 11:45:28;;;;;;;5.50;1.60;;;27.00;54.20;;;;;;5056064;28;20067;-70
2022/07/29 11:47:57;;;;;;;3.92;1.50;;;26.90;52.30;;;;;;5053731;28;20036;-69
2022/07/29 11:50:30;;;;;;;3.53;1.40;;;27.00;51.60;;;;;;5053865;28;20033;-69
2022/07/29 11:52:56;;;;;;;3.38;1.25;;;27.10;52.20;;;;;;5053629;28;20415;-70
2022/07/29 11:55:23;;;;;;;5.68;1.40;;;27.20;54.70;;;;;;5056022;28;20086;-70
2022/07/29 11:57:50;;;;;;;4.55;1.80;;;27.20;53.20;;;;;;5055598;28;20071;-71
2022/07/29 12:00:28;;;;;;;3.40;1.30;;;27.30;52.30;;;;;;5055088;28;20021;-69
2022/07/29 12:02:56;;;;;;;4.53;1.27;;;27.50;53.80;;;;;;5051376;28;20884;-71
2022/07/29 12:05:31;;;;;;;3.92;1.80;;;27.60;53.80;;;;;;5052199;28;20052;-72
2022/07/29 12:08:04;;;;;;;5.22;0.90;;;27.80;50.80;;;;;;5056398;28;20407;-70
2022/07/29 12:10:31;;;;;;;5.47;2.20;;;28.00;53.50;;;;;;5057063;28;20025;-69
2022/07/29 12:12:56;;;;;;;3.95;1.50;;;28.10;48.10;;;;;;5059934;28;20116;-71
2022/07/29 12:15:25;;;;;;;4.97;1.83;;;28.20;52.10;;;;;;5072025;28;20609;-73
2022/07/29 12:17:50;;;;;;;4.63;1.50;;;28.50;52.20;;;;;;5071094;28;20013;-73
2022/07/29 12:20:29;;;;;;;7.70;2.08;;;28.80;52.60;;;;;;5069377;28;20052;-73
2022/07/29 12:22:55;;;;;;;2.92;1.35;;;29.10;46.80;;;;;;5065690;28;20059;-72
2022/07/29 12:25:23;;;;;;;3.83;1.27;;;29.10;47.60;;;;;;5050962;28;20033;-73
2022/07/29 12:27:59;;;;;;;6.72;1.60;;;28.90;51.70;;;;;;5050519;28;20024;-74
2022/07/29 12:30:44;;;;;;;3.65;1.48;;;29.00;51.90;;;;;;5051042;28;20029;-74
2022/07/29 12:33:19;;;;;;;4.68;1.55;;;29.20;50.30;;;;;;5051569;28;20512;-73
2022/07/29 12:35:51;;;;;;;3.92;2.08;;;29.30;47.70;;;;;;5051289;28;20403;-72
2022/07/29 12:38:17;;;;;;;4.75;2.05;;;29.50;46.90;;;;;;5054348;28;20078;-72
2022/07/29 12:40:44;;;;;;;11.35;2.47;;;29.50;48.20;;;;;;5063904;28;20048;-73
2022/07/29 12:43:16;;;;;;;5.07;1.73;;;29.40;45.10;;;;;;5068706;28;20025;-72
2022/07/29 12:45:45;;;;;;;4.68;1.42;;;29.30;48.10;;;;;;5071001;28;20100;-73
2022/07/29 12:48:11;;;;;;;4.25;1.63;;;29.10;45.60;;;;;;5069215;28;20410;-75
2022/07/29 12:50:55;;;;;;;6.40;1.60;;;29.20;52.20;;;;;;5067557;28;20032;-72
2022/07/29 12:53:22;;;;;;;4.63;1.85;;;29.40;53.30;;;;;;5062587;28;20052;-73
2022/07/29 12:55:51;;;;;;;5.85;1.60;;;29.40;49.40;;;;;;5052898;28;20025;-73
2022/07/29 12:58:36;;;;;;;10.65;1.23;;;29.60;52.50;;;;;;5052464;28;20028;-73
2022/07/29 13:01:03;;;;;;;10.35;2.50;;;29.70;50.50;;;;;;5054870;28;20028;-73
2022/07/29 13:03:41;;;;;;;4.72;1.23;;;29.90;43.60;;;;;;5053029;28;20036;-73